createdAt,value
2022-12-18T00:00:16.806Z,89.8
2022-12-18T00:01:17.472Z,89.9
2022-12-18T00:02:16.947Z,89.9
2022-12-18T00:03:16.985Z,90.0
2022-12-18T00:04:16.841Z,90.0
2022-12-18T00:05:17.476Z,90.0
2022-12-18T00:06:16.954Z,90.0
2022-12-18T00:07:17.425Z,90.0
2022-12-18T00:08:16.901Z,90.0
2022-12-18T00:09:17.397Z,90.1
2022-12-18T00:10:16.885Z,90.1
2022-12-18T00:11:17.437Z,90.1
2022-12-18T00:13:16.567Z,90.1
2022-12-18T00:14:17.112Z,90.4
2022-12-18T00:15:16.605Z,90.5
2022-12-18T00:16:17.296Z,90.6
2022-12-18T00:17:16.844Z,90.6
2022-12-18T00:18:20.867Z,90.6
2022-12-18T00:19:17.369Z,90.8
2022-12-18T00:20:16.863Z,91.0
2022-12-18T00:21:17.354Z,91.0
2022-12-18T00:22:16.904Z,91.1
2022-12-18T00:23:17.359Z,91.1
2022-12-18T00:24:16.851Z,91.1
2022-12-18T00:25:17.344Z,91.1
2022-12-18T00:26:16.835Z,90.8
2022-12-18T00:27:17.343Z,90.6
2022-12-18T00:28:16.899Z,90.6
2022-12-18T00:29:17.423Z,90.4
2022-12-18T00:30:16.933Z,90.4
2022-12-18T00:31:17.537Z,90.4
2022-12-18T00:32:17.060Z,90.4
2022-12-18T00:33:16.567Z,90.1
2022-12-18T00:34:17.044Z,89.7
2022-12-18T00:35:16.515Z,89.4
2022-12-18T00:36:17.500Z,89.4
2022-12-18T00:37:20.583Z,89.3
2022-12-18T00:38:17.178Z,89.2
2022-12-18T00:39:16.676Z,89.3
2022-12-18T00:40:17.149Z,89.3
2022-12-18T00:41:16.646Z,89.3
2022-12-18T00:42:16.980Z,89.3
2022-12-18T00:43:16.476Z,89.3
2022-12-18T00:44:16.966Z,89.3
2022-12-18T00:45:17.450Z,89.2
2022-12-18T00:46:17.044Z,88.9
2022-12-18T00:47:16.556Z,88.8
2022-12-18T00:48:17.019Z,88.7
2022-12-18T00:49:16.479Z,88.5
2022-12-18T00:50:16.981Z,88.3
2022-12-18T00:51:16.523Z,88.4
2022-12-18T00:52:16.763Z,88.4
2022-12-18T00:53:17.248Z,88.5
2022-12-18T00:54:16.753Z,88.6
2022-12-18T00:55:17.235Z,88.8
2022-12-18T00:56:16.730Z,88.9
2022-12-18T00:57:17.304Z,89.0
2022-12-18T00:58:16.783Z,89.1
2022-12-18T00:59:17.251Z,89.1
2022-12-18T01:00:16.707Z,89.2
2022-12-18T01:01:17.418Z,88.5
2022-12-18T01:02:17.101Z,88.4
2022-12-18T01:03:16.899Z,88.5
2022-12-18T01:04:17.457Z,88.7
2022-12-18T01:05:16.948Z,89.2
2022-12-18T01:06:17.458Z,89.4
2022-12-18T01:07:16.943Z,89.1
2022-12-18T01:08:17.492Z,88.7
2022-12-18T01:09:17.004Z,88.3
2022-12-18T01:10:16.540Z,88.1
2022-12-18T01:11:17.006Z,88.1
2022-12-18T01:12:17.288Z,88.2
2022-12-18T01:13:16.748Z,88.1
2022-12-18T01:14:17.224Z,87.8
2022-12-18T01:15:16.705Z,87.1
2022-12-18T01:16:17.356Z,87.0
2022-12-18T01:17:16.874Z,87.1
2022-12-18T01:18:17.353Z,87.2
2022-12-18T01:19:16.841Z,87.3
2022-12-18T01:20:17.371Z,87.5
2022-12-18T01:21:17.268Z,87.9
2022-12-18T01:22:16.793Z,88.3
2022-12-18T01:23:17.276Z,88.2
2022-12-18T01:24:16.788Z,87.8
2022-12-18T01:25:17.268Z,87.2
2022-12-18T01:26:17.316Z,87.3
2022-12-18T01:27:16.801Z,87.6
2022-12-18T01:28:17.261Z,87.7
2022-12-18T01:29:16.744Z,88.1
2022-12-18T01:30:17.215Z,88.2
2022-12-18T01:31:16.845Z,88.1
2022-12-18T01:32:17.101Z,88.2
2022-12-18T01:33:16.604Z,88.4
2022-12-18T01:34:17.066Z,88.5
2022-12-18T01:35:16.549Z,88.6
2022-12-18T01:36:17.016Z,88.8
2022-12-18T01:37:16.530Z,89.0
2022-12-18T01:38:17.036Z,88.8
2022-12-18T01:39:16.546Z,88.8
2022-12-18T01:40:17.012Z,88.7
2022-12-18T01:41:16.478Z,88.8
2022-12-18T01:42:17.106Z,88.7
2022-12-18T01:43:16.588Z,88.6
2022-12-18T01:44:17.077Z,88.4
2022-12-18T01:45:17.505Z,88.3
2022-12-18T01:46:17.294Z,88.3
2022-12-18T01:47:16.814Z,88.4
2022-12-18T01:48:17.274Z,88.3
2022-12-18T01:49:16.857Z,88.2
2022-12-18T01:50:17.367Z,88.1
2022-12-18T01:51:16.839Z,88.1
2022-12-18T01:52:17.143Z,88.1
2022-12-18T01:53:16.603Z,88.0
2022-12-18T01:54:17.069Z,88.0
2022-12-18T01:55:16.538Z,88.1
2022-12-18T01:56:17.003Z,88.2
2022-12-18T01:57:16.464Z,88.2
2022-12-18T01:58:16.937Z,88.9
2022-12-18T01:59:17.438Z,88.7
2022-12-18T02:00:16.950Z,88.2
2022-12-18T02:01:17.750Z,87.9
2022-12-18T02:02:17.058Z,87.9
2022-12-18T02:03:16.668Z,87.9
2022-12-18T02:04:17.209Z,88.1
2022-12-18T02:05:16.689Z,88.1
2022-12-18T02:06:17.181Z,88.3
2022-12-18T02:07:16.663Z,88.4
2022-12-18T02:08:17.142Z,88.2
2022-12-18T02:09:16.943Z,88.3
2022-12-18T02:10:16.992Z,88.1
2022-12-18T02:11:16.616Z,87.6
2022-12-18T02:12:17.169Z,87.4
2022-12-18T02:13:16.655Z,87.5
2022-12-18T02:14:17.142Z,87.6
2022-12-18T02:15:16.667Z,87.9
2022-12-18T02:16:17.315Z,88.3
2022-12-18T02:17:16.863Z,88.9
2022-12-18T02:18:17.325Z,89.6
2022-12-18T02:19:16.838Z,89.8
2022-12-18T02:20:17.375Z,89.6
2022-12-18T02:21:16.831Z,89.4
2022-12-18T02:22:17.124Z,89.4
2022-12-18T02:23:16.600Z,89.5
2022-12-18T02:24:17.119Z,89.6
2022-12-18T02:25:16.580Z,89.6
2022-12-18T02:26:17.093Z,89.6
2022-12-18T02:27:16.631Z,89.6
2022-12-18T02:28:17.923Z,89.8
2022-12-18T02:29:17.028Z,90.0
2022-12-18T02:30:16.527Z,90.0
2022-12-18T02:31:17.088Z,90.1
2022-12-18T02:32:16.504Z,90.1
2022-12-18T02:33:16.973Z,90.1
2022-12-18T02:34:16.439Z,90.1
2022-12-18T02:35:17.150Z,90.1
2022-12-18T02:36:16.625Z,90.1
2022-12-18T02:37:17.091Z,90.2
2022-12-18T02:38:16.584Z,90.2
2022-12-18T02:39:17.079Z,89.7
2022-12-18T02:40:16.573Z,89.0
2022-12-18T02:41:17.066Z,89.0
2022-12-18T02:42:16.871Z,88.7
2022-12-18T02:43:17.355Z,88.1
2022-12-18T02:44:16.956Z,87.7
2022-12-18T02:45:17.430Z,87.6
2022-12-18T02:46:17.020Z,87.5
2022-12-18T02:47:16.509Z,87.5
2022-12-18T02:48:16.979Z,87.5
2022-12-18T02:49:16.486Z,87.3
2022-12-18T02:50:16.994Z,87.3
2022-12-18T02:51:16.510Z,86.8
2022-12-18T02:52:17.274Z,86.5
2022-12-18T02:53:16.762Z,86.7
2022-12-18T02:54:17.243Z,87.1
2022-12-18T02:55:16.741Z,87.7
2022-12-18T02:56:17.260Z,89.4
2022-12-18T02:57:16.792Z,90.8
2022-12-18T02:58:17.244Z,91.6
2022-12-18T02:59:16.746Z,91.9
2022-12-18T03:00:17.252Z,91.5
2022-12-18T03:01:17.129Z,89.8
2022-12-18T03:02:17.789Z,88.7
2022-12-18T03:03:18.055Z,88.2
2022-12-18T03:04:16.672Z,88.0
2022-12-18T03:05:17.176Z,87.6
2022-12-18T03:06:16.660Z,87.4
2022-12-18T03:07:17.124Z,87.1
2022-12-18T03:08:16.624Z,87.0
2022-12-18T03:09:17.109Z,87.3
2022-12-18T03:10:16.617Z,87.2
2022-12-18T03:11:17.101Z,87.3
2022-12-18T03:12:16.642Z,87.4
2022-12-18T03:13:17.148Z,87.6
2022-12-18T03:14:16.630Z,87.8
2022-12-18T03:15:18.276Z,88.0
2022-12-18T03:16:16.925Z,88.5
2022-12-18T03:17:17.423Z,89.0
2022-12-18T03:18:16.889Z,88.8
2022-12-18T03:19:17.394Z,88.6
2022-12-18T03:20:16.905Z,88.2
2022-12-18T03:21:17.462Z,88.2
2022-12-18T03:22:16.773Z,88.4
2022-12-18T03:23:17.260Z,88.2
2022-12-18T03:24:16.721Z,87.8
2022-12-18T03:25:17.205Z,87.6
2022-12-18T03:26:16.677Z,87.9
2022-12-18T03:27:17.142Z,87.9
2022-12-18T03:28:16.608Z,87.8
2022-12-18T03:29:17.068Z,87.6
2022-12-18T03:30:16.550Z,87.4
2022-12-18T03:31:17.092Z,87.2
2022-12-18T03:32:17.409Z,87.3
2022-12-18T03:33:16.907Z,87.4
2022-12-18T03:34:17.391Z,87.8
2022-12-18T03:35:16.884Z,87.9
2022-12-18T03:36:17.393Z,87.7
2022-12-18T03:37:16.854Z,87.5
2022-12-18T03:38:17.322Z,87.2
2022-12-18T03:39:16.820Z,87.0
2022-12-18T03:40:17.295Z,87.0
2022-12-18T03:41:16.801Z,86.8
2022-12-18T03:42:17.393Z,86.9
2022-12-18T03:43:16.857Z,87.1
2022-12-18T03:44:17.347Z,87.2
2022-12-18T03:45:16.823Z,87.2
2022-12-18T03:46:17.525Z,87.4
2022-12-18T03:47:17.032Z,87.7
2022-12-18T03:48:16.502Z,87.9
2022-12-18T03:49:16.990Z,87.9
2022-12-18T03:50:16.517Z,88.0
2022-12-18T03:51:16.955Z,87.8
2022-12-18T03:52:17.170Z,87.0
2022-12-18T03:53:16.651Z,86.4
2022-12-18T03:54:17.124Z,86.2
2022-12-18T03:55:16.625Z,86.1
2022-12-18T03:56:17.129Z,86.4
2022-12-18T03:57:16.660Z,86.4
2022-12-18T03:58:17.168Z,86.8
2022-12-18T03:59:16.651Z,87.2
2022-12-18T04:00:17.124Z,87.4
2022-12-18T04:01:17.084Z,87.4
2022-12-18T04:02:16.835Z,87.4
2022-12-18T04:03:17.487Z,87.3
2022-12-18T04:04:17.079Z,87.1
2022-12-18T04:05:16.572Z,87.0
2022-12-18T04:06:17.081Z,87.0
2022-12-18T04:07:16.547Z,86.8
2022-12-18T04:08:17.021Z,87.0
2022-12-18T04:09:16.525Z,87.0
2022-12-18T04:10:17.013Z,87.4
2022-12-18T04:11:16.526Z,87.1
2022-12-18T04:12:17.216Z,87.1
2022-12-18T04:13:16.718Z,87.3
2022-12-18T04:14:18.707Z,87.5
2022-12-18T04:15:17.215Z,87.5
2022-12-18T04:16:16.888Z,87.3
2022-12-18T04:17:17.470Z,87.5
2022-12-18T04:18:16.948Z,87.8
2022-12-18T04:19:17.419Z,88.0
2022-12-18T04:20:16.899Z,87.9
2022-12-18T04:21:17.392Z,87.5
2022-12-18T04:22:17.304Z,87.6
2022-12-18T04:23:16.800Z,87.7
2022-12-18T04:24:17.284Z,87.7
2022-12-18T04:25:16.777Z,87.7
2022-12-18T04:26:17.260Z,87.7
2022-12-18T04:27:16.724Z,87.9
2022-12-18T04:28:17.212Z,88.2
2022-12-18T04:29:16.684Z,88.3
2022-12-18T04:30:17.162Z,88.3
2022-12-18T04:31:16.787Z,88.0
2022-12-18T04:32:17.141Z,87.9
2022-12-18T04:33:16.706Z,88.2
2022-12-18T04:34:17.200Z,88.1
2022-12-18T04:35:16.708Z,87.9
2022-12-18T04:36:17.268Z,87.9
2022-12-18T04:37:16.763Z,87.9
2022-12-18T04:38:17.234Z,88.0
2022-12-18T04:39:16.787Z,88.5
2022-12-18T04:40:17.302Z,89.0
2022-12-18T04:41:16.791Z,89.3
2022-12-18T04:42:17.127Z,89.4
2022-12-18T04:43:16.700Z,89.5
2022-12-18T04:44:17.525Z,89.6
2022-12-18T04:45:17.084Z,89.9
2022-12-18T04:46:16.580Z,90.1
2022-12-18T04:47:17.094Z,90.3
2022-12-18T04:48:16.561Z,90.5
2022-12-18T04:49:17.070Z,90.7
2022-12-18T04:50:16.551Z,90.9
2022-12-18T04:51:23.285Z,91.1
2022-12-18T04:52:17.351Z,91.2
2022-12-18T04:53:16.821Z,90.9
2022-12-18T04:54:17.310Z,91.1
2022-12-18T04:55:16.804Z,91.3
2022-12-18T04:56:17.297Z,91.3
2022-12-18T04:57:16.796Z,91.4
2022-12-18T04:58:17.251Z,91.7
2022-12-18T04:59:16.751Z,91.8
2022-12-18T05:00:17.236Z,91.6
2022-12-18T05:01:17.080Z,91.4
2022-12-18T05:02:16.895Z,91.0
2022-12-18T05:03:17.516Z,90.6
2022-12-18T05:04:18.217Z,89.8
2022-12-18T05:05:16.954Z,89.3
2022-12-18T05:06:17.531Z,89.5
2022-12-18T05:07:17.023Z,89.8
2022-12-18T05:08:16.505Z,90.0
2022-12-18T05:09:17.411Z,90.0
2022-12-18T05:10:17.007Z,89.7
2022-12-18T05:11:16.478Z,89.6
2022-12-18T05:12:17.008Z,90.0
2022-12-18T05:13:16.476Z,90.4
2022-12-18T05:14:16.955Z,90.4
2022-12-18T05:15:17.479Z,90.1
2022-12-18T05:16:17.272Z,90.4
2022-12-18T05:17:16.873Z,90.4
2022-12-18T05:18:17.363Z,90.5
2022-12-18T05:19:16.828Z,91.1
2022-12-18T05:20:17.319Z,91.5
2022-12-18T05:21:16.799Z,91.5
2022-12-18T05:22:17.638Z,91.3
2022-12-18T05:23:17.146Z,91.6
2022-12-18T05:24:16.729Z,91.8
2022-12-18T05:25:17.257Z,91.8
2022-12-18T05:26:16.713Z,92.1
2022-12-18T05:27:17.202Z,92.0
2022-12-18T05:28:16.669Z,91.9
2022-12-18T05:29:17.215Z,91.6
2022-12-18T05:30:16.690Z,91.3
2022-12-18T05:31:17.340Z,91.4
2022-12-18T05:32:16.596Z,91.9
2022-12-18T05:33:17.094Z,91.9
2022-12-18T05:34:16.588Z,92.1
2022-12-18T05:35:17.065Z,92.5
2022-12-18T05:36:16.542Z,92.8
2022-12-18T05:37:17.033Z,93.1
2022-12-18T05:38:16.495Z,93.3
2022-12-18T05:39:17.023Z,93.4
2022-12-18T05:40:16.556Z,93.5
2022-12-18T05:41:17.056Z,93.6
2022-12-18T05:42:16.744Z,93.6
2022-12-18T05:43:21.810Z,93.6
2022-12-18T05:44:17.319Z,93.6
2022-12-18T05:45:16.802Z,93.6
2022-12-18T05:46:17.435Z,93.4
2022-12-18T05:47:16.981Z,93.5
2022-12-18T05:48:16.481Z,93.4
2022-12-18T05:49:16.962Z,93.5
2022-12-18T05:50:16.523Z,93.7
2022-12-18T05:51:16.986Z,93.7
2022-12-18T05:52:17.205Z,93.8
2022-12-18T05:53:16.674Z,93.8
2022-12-18T05:54:17.178Z,93.8
2022-12-18T05:55:16.676Z,93.8
2022-12-18T05:56:17.176Z,93.8
2022-12-18T05:57:16.826Z,93.8
2022-12-18T05:58:17.402Z,93.9
2022-12-18T05:59:16.999Z,93.8
2022-12-18T06:00:16.873Z,93.8
2022-12-18T06:01:17.548Z,93.8
2022-12-18T06:02:17.583Z,93.9
2022-12-18T06:03:17.311Z,93.9
2022-12-18T06:04:17.231Z,94.1
2022-12-18T06:05:16.759Z,94.1
2022-12-18T06:06:17.255Z,94.2
2022-12-18T06:07:16.769Z,94.1
2022-12-18T06:08:17.286Z,94.1
2022-12-18T06:09:16.813Z,94.1
2022-12-18T06:10:17.368Z,94.3
2022-12-18T06:11:16.844Z,94.3
2022-12-18T06:12:16.885Z,94.3
2022-12-18T06:13:17.368Z,94.4
2022-12-18T06:14:16.971Z,94.4
2022-12-18T06:15:17.144Z,94.6
2022-12-18T06:16:16.734Z,94.6
2022-12-18T06:17:17.381Z,94.5
2022-12-18T06:18:16.871Z,94.5
2022-12-18T06:19:17.350Z,94.5
2022-12-18T06:20:17.165Z,94.6
2022-12-18T06:21:16.913Z,94.6
2022-12-18T06:22:16.879Z,94.6
2022-12-18T06:23:17.340Z,94.5
2022-12-18T06:24:16.884Z,94.6
2022-12-18T06:25:17.532Z,94.7
2022-12-18T06:26:16.999Z,94.7
2022-12-18T06:27:16.460Z,94.7
2022-12-18T06:28:16.941Z,94.7
2022-12-18T06:29:17.407Z,94.7
2022-12-18T06:30:16.920Z,94.7
2022-12-18T06:31:17.573Z,94.9
2022-12-18T06:32:16.981Z,94.8
2022-12-18T06:33:16.476Z,94.9
2022-12-18T06:34:16.973Z,94.9
2022-12-18T06:35:16.452Z,95.0
2022-12-18T06:36:16.935Z,95.0
2022-12-18T06:37:17.424Z,95.1
2022-12-18T06:38:16.948Z,95.1
2022-12-18T06:39:17.460Z,95.1
2022-12-18T06:40:16.941Z,95.2
2022-12-18T06:41:17.612Z,95.3
2022-12-18T06:42:16.807Z,95.3
2022-12-18T06:43:17.312Z,95.3
2022-12-18T06:44:16.815Z,95.3
2022-12-18T06:45:17.278Z,95.3
2022-12-18T06:46:16.851Z,95.3
2022-12-18T06:47:17.388Z,95.2
2022-12-18T06:48:16.867Z,95.2
2022-12-18T06:49:17.366Z,95.1
2022-12-18T06:50:16.883Z,95.0
2022-12-18T06:51:17.450Z,94.9
2022-12-18T06:52:16.885Z,94.9
2022-12-18T06:53:17.385Z,94.9
2022-12-18T06:54:17.007Z,94.9
2022-12-18T06:55:16.519Z,94.6
2022-12-18T06:56:17.024Z,94.6
2022-12-18T06:57:16.490Z,94.6
2022-12-18T06:58:16.968Z,94.6
2022-12-18T06:59:17.433Z,94.6
2022-12-18T07:00:16.949Z,94.6
2022-12-18T07:01:17.718Z,94.5
2022-12-18T07:02:16.970Z,94.3
2022-12-18T07:03:16.522Z,94.4
2022-12-18T07:04:17.040Z,94.4
2022-12-18T07:05:16.526Z,94.4
2022-12-18T07:06:17.002Z,94.4
2022-12-18T07:07:16.490Z,94.3
2022-12-18T07:08:16.981Z,94.3
2022-12-18T07:09:16.538Z,94.3
2022-12-18T07:10:17.028Z,94.4
2022-12-18T07:11:16.526Z,94.4
2022-12-18T07:12:17.281Z,94.5
2022-12-18T07:13:16.787Z,94.4
2022-12-18T07:14:17.297Z,94.5
2022-12-18T07:15:16.764Z,94.5
2022-12-18T07:16:25.803Z,94.5
2022-12-18T07:17:16.496Z,94.5
2022-12-18T07:18:16.965Z,94.4
2022-12-18T07:19:17.443Z,94.4
2022-12-18T07:20:16.926Z,94.5
2022-12-18T07:21:17.402Z,94.5
2022-12-18T07:22:16.995Z,94.5
2022-12-18T07:23:16.459Z,94.6
2022-12-18T07:24:16.991Z,94.6
2022-12-18T07:25:16.485Z,94.5
2022-12-18T07:26:16.996Z,94.6
2022-12-18T07:27:16.637Z,94.6
2022-12-18T07:28:17.895Z,94.6
2022-12-18T07:29:17.399Z,94.6
2022-12-18T07:30:16.870Z,94.7
2022-12-18T07:31:17.471Z,94.6
2022-12-18T07:32:16.652Z,94.6
2022-12-18T07:33:17.114Z,94.8
2022-12-18T07:34:16.630Z,94.7
2022-12-18T07:35:25.275Z,94.6
2022-12-18T07:36:16.851Z,94.6
2022-12-18T07:37:17.355Z,94.7
2022-12-18T07:38:16.856Z,94.8
2022-12-18T07:39:17.354Z,94.8
2022-12-18T07:40:16.830Z,94.8
2022-12-18T07:41:17.321Z,94.7
2022-12-18T07:42:16.820Z,94.7
2022-12-18T07:43:17.316Z,94.6
2022-12-18T07:44:16.787Z,94.5
2022-12-18T07:45:17.271Z,94.6
2022-12-18T07:46:17.039Z,94.6
2022-12-18T07:47:16.604Z,94.7
2022-12-18T07:48:17.098Z,94.7
2022-12-18T07:49:16.597Z,94.7
2022-12-18T07:50:17.070Z,94.7
2022-12-18T07:51:17.191Z,94.7
2022-12-18T07:52:25.696Z,94.8
2022-12-18T07:53:17.428Z,94.8
2022-12-18T07:54:16.884Z,94.9
2022-12-18T07:55:17.388Z,94.9
2022-12-18T07:56:28.942Z,94.8
2022-12-18T07:57:48.732Z,94.8
2022-12-18T07:58:16.456Z,94.7
2022-12-18T07:59:16.973Z,94.7
2022-12-18T08:00:16.454Z,94.7
2022-12-18T08:01:17.577Z,94.7
2022-12-18T08:02:17.871Z,94.8
2022-12-18T08:03:16.548Z,94.6
2022-12-18T08:04:17.068Z,94.6
2022-12-18T08:05:16.565Z,94.6
2022-12-18T08:06:17.030Z,94.5
2022-12-18T08:07:16.513Z,94.5
2022-12-18T08:08:16.982Z,94.5
2022-12-18T08:09:16.457Z,94.4
2022-12-18T08:10:16.948Z,94.1
2022-12-18T08:11:17.461Z,93.9
2022-12-18T08:12:17.163Z,94.0
2022-12-18T08:13:16.638Z,94.3
2022-12-18T08:14:17.136Z,94.3
2022-12-18T08:15:16.632Z,94.3
2022-12-18T08:16:17.334Z,94.3
2022-12-18T08:17:16.887Z,94.3
2022-12-18T08:18:17.389Z,94.2
2022-12-18T08:19:16.861Z,94.3
2022-12-18T08:20:17.368Z,94.5
2022-12-18T08:21:16.825Z,94.4
2022-12-18T08:22:17.359Z,94.4
2022-12-18T08:23:16.830Z,94.3
2022-12-18T08:24:17.318Z,94.3
2022-12-18T08:25:16.805Z,94.3
2022-12-18T08:26:17.588Z,94.3
2022-12-18T08:27:30.071Z,94.2
2022-12-18T08:28:16.758Z,94.1
2022-12-18T08:29:21.830Z,94.1
2022-12-18T08:30:17.870Z,94.0
2022-12-18T08:31:17.501Z,94.0
2022-12-18T08:32:17.451Z,93.8
2022-12-18T08:33:16.972Z,94.2
2022-12-18T08:34:16.432Z,94.3
2022-12-18T08:35:19.015Z,94.3
2022-12-18T08:36:16.496Z,94.3
2022-12-18T08:37:17.024Z,94.3
2022-12-18T08:38:16.604Z,94.3
2022-12-18T08:39:17.338Z,94.4
2022-12-18T08:40:16.828Z,94.3
2022-12-18T08:41:17.326Z,94.2
2022-12-18T08:42:16.861Z,94.1
2022-12-18T08:43:17.357Z,93.9
2022-12-18T08:44:16.842Z,93.8
2022-12-18T08:45:17.560Z,93.8
2022-12-18T08:46:17.184Z,93.6
2022-12-18T08:47:16.749Z,93.1
2022-12-18T08:48:22.486Z,93.1
2022-12-18T08:49:17.003Z,93.2
2022-12-18T08:50:16.552Z,93.2
2022-12-18T08:51:17.066Z,93.1
2022-12-18T08:52:17.418Z,93.1
2022-12-18T08:53:16.901Z,93.3
2022-12-18T08:54:17.387Z,93.3
2022-12-18T08:55:16.917Z,93.3
2022-12-18T08:56:17.412Z,93.2
2022-12-18T08:57:16.892Z,93.0
2022-12-18T08:58:17.406Z,93.2
2022-12-18T08:59:20.274Z,93.4
2022-12-18T09:00:17.681Z,93.2
2022-12-18T09:01:17.359Z,93.1
2022-12-18T09:02:17.302Z,93.1
2022-12-18T09:03:17.070Z,93.1
2022-12-18T09:04:16.591Z,93.0
2022-12-18T09:05:17.063Z,93.0
2022-12-18T09:06:16.559Z,93.0
2022-12-18T09:07:17.100Z,92.9
2022-12-18T09:08:16.586Z,92.7
2022-12-18T09:09:17.047Z,92.6
2022-12-18T09:10:17.016Z,92.4
2022-12-18T09:11:16.929Z,92.3
2022-12-18T09:12:17.346Z,92.2
2022-12-18T09:13:16.855Z,92.7
2022-12-18T09:14:17.315Z,92.7
2022-12-18T09:15:16.817Z,92.6
2022-12-18T09:16:17.504Z,92.9
2022-12-18T09:17:17.311Z,93.1
2022-12-18T09:18:16.860Z,92.9
2022-12-18T09:19:17.360Z,92.8
2022-12-18T09:20:17.567Z,92.8
2022-12-18T09:21:16.732Z,92.5
2022-12-18T09:22:16.952Z,92.3
2022-12-18T09:23:17.402Z,92.5
2022-12-18T09:24:16.875Z,92.5
2022-12-18T09:25:17.336Z,92.6
2022-12-18T09:26:16.809Z,93.0
2022-12-18T09:27:17.287Z,93.0
2022-12-18T09:28:16.769Z,93.0
2022-12-18T09:29:19.250Z,92.9
2022-12-18T09:30:16.776Z,92.7
2022-12-18T09:31:17.364Z,92.5
2022-12-18T09:32:22.680Z,92.5
2022-12-18T09:33:17.673Z,92.4
2022-12-18T09:34:17.188Z,92.6
2022-12-18T09:35:16.665Z,92.3
2022-12-18T09:36:17.140Z,92.5
2022-12-18T09:37:16.630Z,92.5
2022-12-18T09:38:17.086Z,92.2
2022-12-18T09:39:18.123Z,92.2
2022-12-18T09:40:17.230Z,92.0
2022-12-18T09:41:16.746Z,92.1
2022-12-18T09:42:17.386Z,91.8
2022-12-18T09:43:16.911Z,91.7
2022-12-18T09:44:17.518Z,91.7
2022-12-18T09:45:17.221Z,92.0
2022-12-18T09:46:16.870Z,92.3
2022-12-18T09:47:17.388Z,92.3
2022-12-18T09:48:16.974Z,91.9
2022-12-18T09:49:17.851Z,91.7
2022-12-18T09:50:17.722Z,91.5
2022-12-18T09:51:17.207Z,91.3
2022-12-18T09:52:17.452Z,91.0
2022-12-18T09:53:16.974Z,90.7
2022-12-18T09:54:16.447Z,90.8
2022-12-18T09:55:16.949Z,90.9
2022-12-18T09:56:17.472Z,90.7
2022-12-18T09:57:16.942Z,90.5
2022-12-18T09:58:17.442Z,90.4
2022-12-18T09:59:16.949Z,90.6
2022-12-18T10:00:17.449Z,90.7
2022-12-18T10:01:17.065Z,90.7
2022-12-18T10:02:17.343Z,90.6
2022-12-18T10:03:17.175Z,90.8
2022-12-18T10:04:16.799Z,90.6
2022-12-18T10:05:17.285Z,90.4
2022-12-18T10:06:16.877Z,90.2
2022-12-18T10:07:17.373Z,90.0
2022-12-18T10:08:17.527Z,89.8
2022-12-18T10:09:17.234Z,89.9
2022-12-18T10:10:16.705Z,90.0
2022-12-18T10:11:17.196Z,90.1
2022-12-18T10:12:16.613Z,89.9
2022-12-18T10:13:17.097Z,89.9
2022-12-18T10:14:16.594Z,89.6
2022-12-18T10:15:17.073Z,90.1
2022-12-18T10:16:16.761Z,90.2
2022-12-18T10:17:18.079Z,89.9
2022-12-18T10:18:22.296Z,89.6
2022-12-18T10:19:16.879Z,89.7
2022-12-18T10:20:17.371Z,90.0
2022-12-18T10:21:16.864Z,89.8
2022-12-18T10:22:16.653Z,90.2
2022-12-18T10:23:17.135Z,90.5
2022-12-18T10:24:16.609Z,90.1
2022-12-18T10:25:17.102Z,90.0
2022-12-18T10:26:16.934Z,89.8
2022-12-18T10:27:17.161Z,89.7
2022-12-18T10:28:16.662Z,90.1
2022-12-18T10:29:17.158Z,90.3
2022-12-18T10:30:16.657Z,90.3
2022-12-18T10:31:17.223Z,90.0
2022-12-18T10:32:16.757Z,89.9
2022-12-18T10:33:17.288Z,89.7
2022-12-18T10:34:16.760Z,89.6
2022-12-18T10:35:17.296Z,89.2
2022-12-18T10:36:16.787Z,89.5
2022-12-18T10:37:17.269Z,89.4
2022-12-18T10:38:16.776Z,89.5
2022-12-18T10:39:17.400Z,89.4
2022-12-18T10:40:22.685Z,89.4
2022-12-18T10:41:17.374Z,89.4
2022-12-18T10:42:17.004Z,89.5
2022-12-18T10:43:16.501Z,89.6
2022-12-18T10:44:17.002Z,89.3
2022-12-18T10:45:17.293Z,89.5
2022-12-18T10:46:16.909Z,89.5
2022-12-18T10:47:16.474Z,89.4
2022-12-18T10:48:16.938Z,89.6
2022-12-18T10:49:17.429Z,89.5
2022-12-18T10:50:16.908Z,89.4
2022-12-18T10:51:17.406Z,89.6
2022-12-18T10:52:17.175Z,89.5
2022-12-18T10:53:16.812Z,89.5
2022-12-18T10:54:17.302Z,89.6
2022-12-18T10:55:16.765Z,89.8
2022-12-18T10:56:17.258Z,89.9
2022-12-18T10:57:16.755Z,89.9
2022-12-18T10:58:26.549Z,89.5
2022-12-18T10:59:17.253Z,88.9
2022-12-18T11:00:16.754Z,88.6
2022-12-18T11:01:17.614Z,88.8
2022-12-18T11:02:17.261Z,89.1
2022-12-18T11:03:17.060Z,88.8
2022-12-18T11:04:16.576Z,88.5
2022-12-18T11:05:17.076Z,88.0
2022-12-18T11:06:16.555Z,88.5
2022-12-18T11:07:17.038Z,88.0
2022-12-18T11:08:16.550Z,87.8
2022-12-18T11:09:17.018Z,88.0
2022-12-18T11:10:16.538Z,87.7
2022-12-18T11:11:17.058Z,87.6
2022-12-18T11:12:16.526Z,87.9
2022-12-18T11:13:17.041Z,87.6
2022-12-18T11:14:16.528Z,87.2
2022-12-18T11:15:17.037Z,87.3
2022-12-18T11:16:16.736Z,87.2
2022-12-18T11:17:27.101Z,86.8
2022-12-18T11:18:16.671Z,86.8
2022-12-18T11:19:17.141Z,86.5
2022-12-18T11:20:16.758Z,86.5
2022-12-18T11:21:17.316Z,86.5
2022-12-18T11:22:16.754Z,86.2
2022-12-18T11:23:17.243Z,86.4
2022-12-18T11:24:16.734Z,86.6
2022-12-18T11:25:32.873Z,85.9
2022-12-18T11:26:16.788Z,85.2
2022-12-18T11:27:17.265Z,85.1
2022-12-18T11:28:16.721Z,84.3
2022-12-18T11:29:18.322Z,84.0
2022-12-18T11:30:17.399Z,84.0
2022-12-18T11:31:16.947Z,83.8
2022-12-18T11:32:17.075Z,83.5
2022-12-18T11:33:16.543Z,83.2
2022-12-18T11:34:30.130Z,82.6
2022-12-18T11:35:16.853Z,82.3
2022-12-18T11:36:17.369Z,82.2
2022-12-18T11:37:16.855Z,81.6
2022-12-18T11:38:16.847Z,82.0
2022-12-18T11:39:17.314Z,81.9
2022-12-18T11:40:16.819Z,82.0
2022-12-18T11:41:17.344Z,82.2
2022-12-18T11:42:16.605Z,81.9
2022-12-18T11:43:17.654Z,81.0
2022-12-18T11:44:18.209Z,81.1
2022-12-18T11:45:17.242Z,80.9
2022-12-18T11:46:20.387Z,81.2
2022-12-18T11:47:17.283Z,81.0
2022-12-18T11:48:16.749Z,80.7
2022-12-18T11:49:17.229Z,80.3
2022-12-18T11:50:16.705Z,80.5
2022-12-18T11:51:17.202Z,80.0
2022-12-18T11:52:16.793Z,79.5
2022-12-18T11:53:17.267Z,80.9
2022-12-18T11:54:16.795Z,80.0
2022-12-18T11:55:17.298Z,78.6
2022-12-18T11:56:16.801Z,78.7
2022-12-18T11:57:17.299Z,79.7
2022-12-18T11:58:16.798Z,79.7
2022-12-18T11:59:17.274Z,81.2
2022-12-18T12:00:16.783Z,82.3
2022-12-18T12:01:17.360Z,82.9
2022-12-18T12:02:16.768Z,82.9
2022-12-18T12:03:17.985Z,83.7
2022-12-18T12:04:17.037Z,84.7
2022-12-18T12:05:16.564Z,84.7
2022-12-18T12:06:17.071Z,84.1
2022-12-18T12:07:17.009Z,84.5
2022-12-18T12:08:16.837Z,84.5
2022-12-18T12:09:17.349Z,84.2
2022-12-18T12:10:16.821Z,84.1
2022-12-18T12:11:17.312Z,84.1
2022-12-18T12:12:16.666Z,84.4
2022-12-18T12:13:17.155Z,84.5
2022-12-18T12:14:16.642Z,84.6
2022-12-18T12:15:17.120Z,84.5
2022-12-18T12:16:16.990Z,84.7
2022-12-18T12:17:16.652Z,84.8
2022-12-18T12:18:17.157Z,84.8
2022-12-18T12:19:16.669Z,85.2
2022-12-18T12:20:17.178Z,85.0
2022-12-18T12:21:16.639Z,85.3
2022-12-18T12:22:17.267Z,85.1
2022-12-18T12:23:16.745Z,85.1
2022-12-18T12:24:17.254Z,85.2
2022-12-18T12:25:18.037Z,85.4
2022-12-18T12:26:17.467Z,85.2
2022-12-18T12:27:17.464Z,85.1
2022-12-18T12:28:17.306Z,85.1
2022-12-18T12:29:21.460Z,84.9
2022-12-18T12:30:17.369Z,85.0
2022-12-18T12:31:17.010Z,84.9
2022-12-18T12:32:16.536Z,84.7
2022-12-18T12:33:16.993Z,84.8
2022-12-18T12:34:16.493Z,85.3
2022-12-18T12:35:16.966Z,85.0
2022-12-18T12:36:17.456Z,84.8
2022-12-18T12:37:16.934Z,84.8
2022-12-18T12:38:17.414Z,84.4
2022-12-18T12:39:16.977Z,84.9
2022-12-18T12:40:50.051Z,84.8
2022-12-18T12:41:16.991Z,85.0
2022-12-18T12:42:16.496Z,85.1
2022-12-18T12:43:17.260Z,84.9
2022-12-18T12:44:17.271Z,85.0
2022-12-18T12:45:17.732Z,85.6
2022-12-18T12:46:17.430Z,85.3
2022-12-18T12:47:17.145Z,84.9
2022-12-18T12:48:17.466Z,85.0
2022-12-18T12:49:16.953Z,85.3
2022-12-18T12:50:17.514Z,85.1
2022-12-18T12:51:17.027Z,85.1
2022-12-18T12:52:17.007Z,85.0
2022-12-18T12:53:16.719Z,84.8
2022-12-18T12:54:17.721Z,84.6
2022-12-18T12:55:17.582Z,84.5
2022-12-18T12:56:17.534Z,84.4
2022-12-18T12:57:17.251Z,84.6
2022-12-18T12:58:17.844Z,84.7
2022-12-18T12:59:17.530Z,84.9
2022-12-18T13:00:17.662Z,84.9
2022-12-18T13:01:23.839Z,84.5
2022-12-18T13:02:18.041Z,84.4
2022-12-18T13:03:17.347Z,84.5
2022-12-18T13:04:16.945Z,84.4
2022-12-18T13:05:16.750Z,84.9
2022-12-18T13:06:17.272Z,84.4
2022-12-18T13:07:16.832Z,84.7
2022-12-18T13:08:20.249Z,84.6
2022-12-18T13:09:17.562Z,84.7
2022-12-18T13:10:19.087Z,84.8
2022-12-18T13:11:17.107Z,85.1
2022-12-18T13:12:17.135Z,85.1
2022-12-18T13:13:23.830Z,85.1
2022-12-18T13:14:16.916Z,85.0
2022-12-18T13:15:17.106Z,85.1
2022-12-18T13:16:16.619Z,85.1
2022-12-18T13:17:17.077Z,84.9
2022-12-18T13:18:16.572Z,84.8
2022-12-18T13:19:17.055Z,85.0